sensor_id;sensor_type;location;lat;lon;timestamp;P1;durP1;ratioP1;P2;durP2;ratioP2
2658;SDS011;1339;53.304;10.406;2022-10-16T00:00:32;6.33;;;5.83;;
2658;SDS011;1339;53.304;10.406;2022-10-16T00:03:00;6.50;;;5.90;;
2658;SDS011;1339;53.304;10.406;2022-10-16T00:05:27;7.80;;;7.00;;
2658;SDS011;1339;53.304;10.406;2022-10-16T00:07:55;6.60;;;6.10;;
2658;SDS011;1339;53.304;10.406;2022-10-16T00:10:22;5.90;;;5.30;;
2658;SDS011;1339;53.304;10.406;2022-10-16T00:12:49;6.60;;;6.10;;
2658;SDS011;1339;53.304;10.406;2022-10-16T00:15:16;5.90;;;5.40;;
2658;SDS011;1339;53.304;10.406;2022-10-16T00:17:43;6.97;;;6.13;;
2658;SDS011;1339;53.304;10.406;2022-10-16T00:20:12;6.03;;;5.53;;
2658;SDS011;1339;53.304;10.406;2022-10-16T00:22:39;6.40;;;5.73;;
2658;SDS011;1339;53.304;10.406;2022-10-16T00:25:06;6.30;;;5.10;;
2658;SDS011;1339;53.304;10.406;2022-10-16T00:27:34;6.43;;;5.83;;
2658;SDS011;1339;53.304;10.406;2022-10-16T00:30:01;6.10;;;5.60;;
2658;SDS011;1339;53.304;10.406;2022-10-16T00:32:28;5.13;;;4.73;;
2658;SDS011;1339;53.304;10.406;2022-10-16T00:34:55;6.70;;;6.00;;
2658;SDS011;1339;53.304;10.406;2022-10-16T00:37:24;6.57;;;5.50;;
2658;SDS011;1339;53.304;10.406;2022-10-16T00:39:51;5.73;;;5.23;;
2658;SDS011;1339;53.304;10.406;2022-10-16T00:42:18;6.27;;;5.73;;
2658;SDS011;1339;53.304;10.406;2022-10-16T00:44:49;8.73;;;6.70;;
2658;SDS011;1339;53.304;10.406;2022-10-16T00:47:18;6.37;;;5.80;;
2658;SDS011;1339;53.304;10.406;2022-10-16T00:49:46;6.87;;;6.37;;
2658;SDS011;1339;53.304;10.406;2022-10-16T00:52:14;6.10;;;5.60;;
2658;SDS011;1339;53.304;10.406;2022-10-16T00:54:43;6.23;;;5.60;;
2658;SDS011;1339;53.304;10.406;2022-10-16T00:57:10;6.23;;;5.73;;
2658;SDS011;1339;53.304;10.406;2022-10-16T00:59:38;6.30;;;5.50;;
2658;SDS011;1339;53.304;10.406;2022-10-16T01:02:08;6.10;;;5.50;;
2658;SDS011;1339;53.304;10.406;2022-10-16T01:04:36;4.77;;;4.37;;
2658;SDS011;1339;53.304;10.406;2022-10-16T01:07:06;5.23;;;4.47;;
2658;SDS011;1339;53.304;10.406;2022-10-16T01:09:36;5.97;;;5.37;;
2658;SDS011;1339;53.304;10.406;2022-10-16T01:12:09;4.63;;;4.23;;
2658;SDS011;1339;53.304;10.406;2022-10-16T01:14:39;4.07;;;3.77;;
2658;SDS011;1339;53.304;10.406;2022-10-16T01:17:09;4.00;;;3.70;;
2658;SDS011;1339;53.304;10.406;2022-10-16T01:19:44;4.80;;;3.63;;
2658;SDS011;1339;53.304;10.406;2022-10-16T01:22:13;4.37;;;3.97;;
2658;SDS011;1339;53.304;10.406;2022-10-16T01:24:41;3.90;;;3.60;;
2658;SDS011;1339;53.304;10.406;2022-10-16T01:27:12;4.20;;;3.00;;
2658;SDS011;1339;53.304;10.406;2022-10-16T01:29:42;3.67;;;3.37;;
2658;SDS011;1339;53.304;10.406;2022-10-16T01:32:14;3.50;;;3.20;;
2658;SDS011;1339;53.304;10.406;2022-10-16T01:34:44;6.13;;;3.20;;
2658;SDS011;1339;53.304;10.406;2022-10-16T01:37:14;3.63;;;3.33;;
2658;SDS011;1339;53.304;10.406;2022-10-16T01:39:42;6.73;;;2.97;;
2658;SDS011;1339;53.304;10.406;2022-10-16T01:42:14;2.73;;;2.40;;
2658;SDS011;1339;53.304;10.406;2022-10-16T01:44:43;3.37;;;3.07;;
2658;SDS011;1339;53.304;10.406;2022-10-16T01:47:10;3.23;;;2.90;;
2658;SDS011;1339;53.304;10.406;2022-10-16T01:49:39;3.50;;;2.63;;
2658;SDS011;1339;53.304;10.406;2022-10-16T01:52:08;2.90;;;2.70;;
2658;SDS011;1339;53.304;10.406;2022-10-16T01:54:36;3.53;;;2.53;;
2658;SDS011;1339;53.304;10.406;2022-10-16T01:57:04;2.70;;;2.43;;
2658;SDS011;1339;53.304;10.406;2022-10-16T01:59:35;5.43;;;2.97;;
2658;SDS011;1339;53.304;10.406;2022-10-16T02:02:05;2.43;;;2.23;;
2658;SDS011;1339;53.304;10.406;2022-10-16T02:04:34;2.40;;;2.20;;
2658;SDS011;1339;53.304;10.406;2022-10-16T02:07:03;1.67;;;1.57;;
2658;SDS011;1339;53.304;10.406;2022-10-16T02:09:30;2.13;;;1.93;;
2658;SDS011;1339;53.304;10.406;2022-10-16T02:12:00;3.20;;;2.20;;
2658;SDS011;1339;53.304;10.406;2022-10-16T02:14:29;2.80;;;2.60;;
2658;SDS011;1339;53.304;10.406;2022-10-16T02:16:57;2.80;;;1.73;;
2658;SDS011;1339;53.304;10.406;2022-10-16T02:19:25;3.77;;;1.90;;
2658;SDS011;1339;53.304;10.406;2022-10-16T02:21:53;3.33;;;1.90;;
2658;SDS011;1339;53.304;10.406;2022-10-16T02:24:22;2.73;;;1.83;;
2658;SDS011;1339;53.304;10.406;2022-10-16T02:26:52;2.17;;;1.87;;
2658;SDS011;1339;53.304;10.406;2022-10-16T02:29:22;3.87;;;1.67;;
2658;SDS011;1339;53.304;10.406;2022-10-16T02:31:51;2.03;;;1.83;;
2658;SDS011;1339;53.304;10.406;2022-10-16T02:34:21;2.80;;;1.70;;
2658;SDS011;1339;53.304;10.406;2022-10-16T02:36:50;1.57;;;1.47;;
2658;SDS011;1339;53.304;10.406;2022-10-16T02:39:19;2.60;;;1.87;;
2658;SDS011;1339;53.304;10.406;2022-10-16T02:41:47;3.47;;;1.77;;
2658;SDS011;1339;53.304;10.406;2022-10-16T02:44:14;2.20;;;1.50;;
2658;SDS011;1339;53.304;10.406;2022-10-16T02:46:41;2.80;;;1.60;;
2658;SDS011;1339;53.304;10.406;2022-10-16T02:49:08;3.13;;;1.63;;
2658;SDS011;1339;53.304;10.406;2022-10-16T02:51:37;2.40;;;1.73;;
2658;SDS011;1339;53.304;10.406;2022-10-16T02:54:04;3.30;;;1.67;;
2658;SDS011;1339;53.304;10.406;2022-10-16T02:56:31;4.90;;;2.00;;
2658;SDS011;1339;53.304;10.406;2022-10-16T02:58:58;2.53;;;2.00;;
2658;SDS011;1339;53.304;10.406;2022-10-16T03:01:25;2.73;;;1.80;;
2658;SDS011;1339;53.304;10.406;2022-10-16T03:03:52;3.60;;;1.93;;
2658;SDS011;1339;53.304;10.406;2022-10-16T03:06:19;2.33;;;2.07;;
2658;SDS011;1339;53.304;10.406;2022-10-16T03:08:48;1.90;;;1.80;;
2658;SDS011;1339;53.304;10.406;2022-10-16T03:11:15;1.87;;;1.63;;
2658;SDS011;1339;53.304;10.406;2022-10-16T03:13:42;3.10;;;2.13;;
2658;SDS011;1339;53.304;10.406;2022-10-16T03:16:09;1.90;;;1.80;;
2658;SDS011;1339;53.304;10.406;2022-10-16T03:18:36;2.47;;;1.80;;
2658;SDS011;1339;53.304;10.406;2022-10-16T03:21:03;2.80;;;1.63;;
2658;SDS011;1339;53.304;10.406;2022-10-16T03:23:30;4.93;;;1.87;;
2658;SDS011;1339;53.304;10.406;2022-10-16T03:25:59;1.77;;;1.30;;
2658;SDS011;1339;53.304;10.406;2022-10-16T03:28:26;2.10;;;1.90;;
2658;SDS011;1339;53.304;10.406;2022-10-16T03:30:53;2.30;;;1.70;;
2658;SDS011;1339;53.304;10.406;2022-10-16T03:33:20;2.00;;;1.67;;
2658;SDS011;1339;53.304;10.406;2022-10-16T03:35:50;2.80;;;1.60;;
2658;SDS011;1339;53.304;10.406;2022-10-16T03:38:18;2.70;;;1.67;;
2658;SDS011;1339;53.304;10.406;2022-10-16T03:40:46;2.07;;;1.37;;
2658;SDS011;1339;53.304;10.406;2022-10-16T03:43:14;3.37;;;1.53;;
2658;SDS011;1339;53.304;10.406;2022-10-16T03:45:41;2.57;;;1.50;;
2658;SDS011;1339;53.304;10.406;2022-10-16T03:48:09;5.03;;;1.43;;
2658;SDS011;1339;53.304;10.406;2022-10-16T03:50:36;7.83;;;1.80;;
2658;SDS011;1339;53.304;10.406;2022-10-16T03:53:03;2.30;;;1.90;;
2658;SDS011;1339;53.304;10.406;2022-10-16T03:55:30;2.40;;;1.33;;
2658;SDS011;1339;53.304;10.406;2022-10-16T03:57:57;7.43;;;1.90;;
2658;SDS011;1339;53.304;10.406;2022-10-16T04:00:25;3.47;;;1.50;;
2658;SDS011;1339;53.304;10.406;2022-10-16T04:02:53;2.03;;;1.43;;
2658;SDS011;1339;53.304;10.406;2022-10-16T04:05:20;1.70;;;1.60;;
2658;SDS011;1339;53.304;10.406;2022-10-16T04:07:47;2.23;;;1.50;;
2658;SDS011;1339;53.304;10.406;2022-10-16T04:10:14;2.30;;;1.80;;
2658;SDS011;1339;53.304;10.406;2022-10-16T04:12:41;2.30;;;1.47;;
2658;SDS011;1339;53.304;10.406;2022-10-16T04:15:09;3.40;;;1.70;;
2658;SDS011;1339;53.304;10.406;2022-10-16T04:17:37;2.53;;;1.70;;
2658;SDS011;1339;53.304;10.406;2022-10-16T04:20:05;2.33;;;1.80;;
2658;SDS011;1339;53.304;10.406;2022-10-16T04:22:32;1.60;;;1.50;;
2658;SDS011;1339;53.304;10.406;2022-10-16T04:24:59;3.57;;;1.67;;
2658;SDS011;1339;53.304;10.406;2022-10-16T04:27:26;4.97;;;1.73;;
2658;SDS011;1339;53.304;10.406;2022-10-16T04:29:56;2.87;;;1.87;;
2658;SDS011;1339;53.304;10.406;2022-10-16T04:32:23;2.07;;;1.50;;
2658;SDS011;1339;53.304;10.406;2022-10-16T04:34:51;1.93;;;1.83;;
2658;SDS011;1339;53.304;10.406;2022-10-16T04:37:22;2.67;;;1.80;;
2658;SDS011;1339;53.304;10.406;2022-10-16T04:39:49;2.43;;;1.80;;
2658;SDS011;1339;53.304;10.406;2022-10-16T04:42:17;1.50;;;1.30;;
2658;SDS011;1339;53.304;10.406;2022-10-16T04:44:44;2.83;;;1.90;;
2658;SDS011;1339;53.304;10.406;2022-10-16T04:47:11;4.47;;;2.22;;
2658;SDS011;1339;53.304;10.406;2022-10-16T04:49:38;2.20;;;1.60;;
2658;SDS011;1339;53.304;10.406;2022-10-16T04:52:06;4.60;;;1.70;;
2658;SDS011;1339;53.304;10.406;2022-10-16T04:54:34;2.77;;;1.70;;
2658;SDS011;1339;53.304;10.406;2022-10-16T04:57:01;2.70;;;1.93;;
2658;SDS011;1339;53.304;10.406;2022-10-16T04:59:29;5.70;;;2.40;;
2658;SDS011;1339;53.304;10.406;2022-10-16T05:01:57;2.30;;;2.10;;
2658;SDS011;1339;53.304;10.406;2022-10-16T05:04:24;4.30;;;1.90;;
2658;SDS011;1339;53.304;10.406;2022-10-16T05:06:51;3.80;;;2.20;;
2658;SDS011;1339;53.304;10.406;2022-10-16T05:09:19;4.03;;;2.77;;
2658;SDS011;1339;53.304;10.406;2022-10-16T05:11:46;8.07;;;3.13;;
2658;SDS011;1339;53.304;10.406;2022-10-16T05:14:13;1.97;;;1.70;;
2658;SDS011;1339;53.304;10.406;2022-10-16T05:16:41;2.30;;;2.10;;
2658;SDS011;1339;53.304;10.406;2022-10-16T05:19:08;5.27;;;2.07;;
2658;SDS011;1339;53.304;10.406;2022-10-16T05:21:35;6.93;;;2.60;;
2658;SDS011;1339;53.304;10.406;2022-10-16T05:24:02;6.83;;;2.73;;
2658;SDS011;1339;53.304;10.406;2022-10-16T05:26:30;3.77;;;2.13;;
2658;SDS011;1339;53.304;10.406;2022-10-16T05:28:58;2.70;;;1.83;;
2658;SDS011;1339;53.304;10.406;2022-10-16T05:31:25;4.23;;;2.83;;
2658;SDS011;1339;53.304;10.406;2022-10-16T05:33:52;4.33;;;2.10;;
2658;SDS011;1339;53.304;10.406;2022-10-16T05:36:19;2.63;;;1.90;;
2658;SDS011;1339;53.304;10.406;2022-10-16T05:38:50;3.70;;;1.90;;
2658;SDS011;1339;53.304;10.406;2022-10-16T05:41:17;2.03;;;1.93;;
2658;SDS011;1339;53.304;10.406;2022-10-16T05:43:47;3.33;;;2.20;;
2658;SDS011;1339;53.304;10.406;2022-10-16T05:46:15;2.40;;;2.17;;
2658;SDS011;1339;53.304;10.406;2022-10-16T05:48:42;2.53;;;2.27;;
2658;SDS011;1339;53.304;10.406;2022-10-16T05:51:10;3.13;;;2.20;;
2658;SDS011;1339;53.304;10.406;2022-10-16T05:53:38;5.30;;;2.17;;
2658;SDS011;1339;53.304;10.406;2022-10-16T05:56:05;4.27;;;2.17;;
2658;SDS011;1339;53.304;10.406;2022-10-16T05:58:35;4.60;;;2.13;;
2658;SDS011;1339;53.304;10.406;2022-10-16T06:01:04;4.57;;;2.73;;
2658;SDS011;1339;53.304;10.406;2022-10-16T06:03:32;2.40;;;1.73;;
2658;SDS011;1339;53.304;10.406;2022-10-16T06:06:06;5.63;;;2.80;;
2658;SDS011;1339;53.304;10.406;2022-10-16T06:08:34;4.17;;;1.73;;
2658;SDS011;1339;53.304;10.406;2022-10-16T06:11:01;2.40;;;1.93;;
2658;SDS011;1339;53.304;10.406;2022-10-16T06:13:28;3.20;;;2.03;;
2658;SDS011;1339;53.304;10.406;2022-10-16T06:15:56;3.10;;;1.80;;
2658;SDS011;1339;53.304;10.406;2022-10-16T06:18:25;3.83;;;2.10;;
2658;SDS011;1339;53.304;10.406;2022-10-16T06:20:52;4.80;;;2.30;;
2658;SDS011;1339;53.304;10.406;2022-10-16T06:23:19;4.97;;;2.03;;
2658;SDS011;1339;53.304;10.406;2022-10-16T06:25:46;3.37;;;1.93;;
2658;SDS011;1339;53.304;10.406;2022-10-16T06:28:14;2.57;;;2.37;;
2658;SDS011;1339;53.304;10.406;2022-10-16T06:30:41;3.13;;;1.90;;
2658;SDS011;1339;53.304;10.406;2022-10-16T06:33:09;4.57;;;2.60;;
2658;SDS011;1339;53.304;10.406;2022-10-16T06:35:37;2.30;;;2.20;;
2658;SDS011;1339;53.304;10.406;2022-10-16T06:38:04;2.13;;;1.93;;
2658;SDS011;1339;53.304;10.406;2022-10-16T06:40:31;3.33;;;2.30;;
2658;SDS011;1339;53.304;10.406;2022-10-16T06:42:58;7.73;;;2.40;;
2658;SDS011;1339;53.304;10.406;2022-10-16T06:45:25;3.20;;;1.80;;
2658;SDS011;1339;53.304;10.406;2022-10-16T06:47:53;4.50;;;2.97;;
2658;SDS011;1339;53.304;10.406;2022-10-16T06:50:20;3.17;;;2.23;;
2658;SDS011;1339;53.304;10.406;2022-10-16T06:52:48;7.17;;;2.37;;
2658;SDS011;1339;53.304;10.406;2022-10-16T06:55:15;3.40;;;2.30;;
2658;SDS011;1339;53.304;10.406;2022-10-16T06:57:43;2.63;;;2.10;;
2658;SDS011;1339;53.304;10.406;2022-10-16T07:00:10;4.10;;;2.40;;
2658;SDS011;1339;53.304;10.406;2022-10-16T07:02:37;3.60;;;2.30;;
2658;SDS011;1339;53.304;10.406;2022-10-16T07:05:04;5.40;;;3.00;;
2658;SDS011;1339;53.304;10.406;2022-10-16T07:07:32;7.83;;;2.10;;
2658;SDS011;1339;53.304;10.406;2022-10-16T07:10:00;3.60;;;2.40;;
2658;SDS011;1339;53.304;10.406;2022-10-16T07:12:27;3.37;;;2.27;;
2658;SDS011;1339;53.304;10.406;2022-10-16T07:14:54;3.10;;;2.37;;
2658;SDS011;1339;53.304;10.406;2022-10-16T07:17:21;3.70;;;2.50;;
2658;SDS011;1339;53.304;10.406;2022-10-16T07:19:48;2.87;;;2.67;;
2658;SDS011;1339;53.304;10.406;2022-10-16T07:22:18;7.57;;;2.40;;
2658;SDS011;1339;53.304;10.406;2022-10-16T07:24:45;3.33;;;2.53;;
2658;SDS011;1339;53.304;10.406;2022-10-16T07:27:14;3.83;;;2.60;;
2658;SDS011;1339;53.304;10.406;2022-10-16T07:29:41;3.60;;;2.40;;
2658;SDS011;1339;53.304;10.406;2022-10-16T07:32:08;3.70;;;2.40;;
2658;SDS011;1339;53.304;10.406;2022-10-16T07:34:36;5.70;;;2.73;;
2658;SDS011;1339;53.304;10.406;2022-10-16T07:37:03;3.07;;;2.70;;
2658;SDS011;1339;53.304;10.406;2022-10-16T07:39:30;2.43;;;2.13;;
2658;SDS011;1339;53.304;10.406;2022-10-16T07:41:57;4.30;;;2.20;;
2658;SDS011;1339;53.304;10.406;2022-10-16T07:44:26;3.13;;;2.17;;
2658;SDS011;1339;53.304;10.406;2022-10-16T07:46:53;2.73;;;2.50;;
2658;SDS011;1339;53.304;10.406;2022-10-16T07:49:20;3.70;;;3.03;;
2658;SDS011;1339;53.304;10.406;2022-10-16T07:51:47;2.30;;;2.10;;
2658;SDS011;1339;53.304;10.406;2022-10-16T07:54:14;4.13;;;2.27;;
2658;SDS011;1339;53.304;10.406;2022-10-16T07:56:42;6.97;;;3.00;;
2658;SDS011;1339;53.304;10.406;2022-10-16T07:59:09;3.97;;;2.07;;
2658;SDS011;1339;53.304;10.406;2022-10-16T08:01:37;3.07;;;2.30;;
2658;SDS011;1339;53.304;10.406;2022-10-16T08:04:05;4.13;;;2.50;;
2658;SDS011;1339;53.304;10.406;2022-10-16T08:06:34;2.27;;;2.07;;
2658;SDS011;1339;53.304;10.406;2022-10-16T08:09:02;3.73;;;1.93;;
2658;SDS011;1339;53.304;10.406;2022-10-16T08:11:29;3.80;;;1.97;;
2658;SDS011;1339;53.304;10.406;2022-10-16T08:13:56;3.17;;;1.83;;
2658;SDS011;1339;53.304;10.406;2022-10-16T08:16:23;4.30;;;2.10;;
2658;SDS011;1339;53.304;10.406;2022-10-16T08:18:52;6.03;;;2.33;;
2658;SDS011;1339;53.304;10.406;2022-10-16T08:21:20;2.53;;;2.23;;
2658;SDS011;1339;53.304;10.406;2022-10-16T08:23:48;6.37;;;2.60;;
2658;SDS011;1339;53.304;10.406;2022-10-16T08:26:15;2.90;;;2.27;;
2658;SDS011;1339;53.304;10.406;2022-10-16T08:28:42;3.23;;;1.87;;
2658;SDS011;1339;53.304;10.406;2022-10-16T08:31:10;3.83;;;2.07;;
2658;SDS011;1339;53.304;10.406;2022-10-16T08:33:37;3.40;;;2.10;;
2658;SDS011;1339;53.304;10.406;2022-10-16T08:36:06;2.23;;;1.70;;
2658;SDS011;1339;53.304;10.406;2022-10-16T08:38:33;2.50;;;2.30;;
2658;SDS011;1339;53.304;10.406;2022-10-16T08:41:03;5.23;;;2.07;;
2658;SDS011;1339;53.304;10.406;2022-10-16T08:43:41;3.13;;;2.20;;
2658;SDS011;1339;53.304;10.406;2022-10-16T08:46:15;3.73;;;2.33;;
2658;SDS011;1339;53.304;10.406;2022-10-16T08:48:45;4.50;;;1.77;;
2658;SDS011;1339;53.304;10.406;2022-10-16T08:51:17;2.13;;;1.60;;
2658;SDS011;1339;53.304;10.406;2022-10-16T08:53:46;2.50;;;1.30;;
2658;SDS011;1339;53.304;10.406;2022-10-16T08:56:15;4.60;;;1.80;;
2658;SDS011;1339;53.304;10.406;2022-10-16T08:58:44;2.10;;;1.90;;
2658;SDS011;1339;53.304;10.406;2022-10-16T09:01:12;3.20;;;1.83;;
2658;SDS011;1339;53.304;10.406;2022-10-16T09:03:43;3.00;;;2.00;;
2658;SDS011;1339;53.304;10.406;2022-10-16T09:06:21;4.00;;;2.13;;
2658;SDS011;1339;53.304;10.406;2022-10-16T09:08:57;3.63;;;2.10;;
2658;SDS011;1339;53.304;10.406;2022-10-16T09:11:31;3.10;;;1.70;;
2658;SDS011;1339;53.304;10.406;2022-10-16T09:14:03;2.30;;;2.10;;
2658;SDS011;1339;53.304;10.406;2022-10-16T09:16:34;4.07;;;2.93;;
2658;SDS011;1339;53.304;10.406;2022-10-16T09:19:04;1.70;;;1.60;;
2658;SDS011;1339;53.304;10.406;2022-10-16T09:21:37;2.80;;;1.67;;
2658;SDS011;1339;53.304;10.406;2022-10-16T09:24:09;3.13;;;1.63;;
2658;SDS011;1339;53.304;10.406;2022-10-16T09:26:37;1.80;;;1.53;;
2658;SDS011;1339;53.304;10.406;2022-10-16T09:29:05;2.27;;;1.33;;
2658;SDS011;1339;53.304;10.406;2022-10-16T09:31:32;2.30;;;1.80;;
2658;SDS011;1339;53.304;10.406;2022-10-16T09:34:02;1.63;;;1.40;;
2658;SDS011;1339;53.304;10.406;2022-10-16T09:36:32;1.27;;;1.13;;
2658;SDS011;1339;53.304;10.406;2022-10-16T09:39:04;1.40;;;1.10;;
2658;SDS011;1339;53.304;10.406;2022-10-16T09:41:33;3.50;;;1.00;;
2658;SDS011;1339;53.304;10.406;2022-10-16T09:44:01;3.03;;;1.13;;
2658;SDS011;1339;53.304;10.406;2022-10-16T09:46:30;2.70;;;1.70;;
2658;SDS011;1339;53.304;10.406;2022-10-16T09:48:58;2.87;;;1.77;;
2658;SDS011;1339;53.304;10.406;2022-10-16T09:51:26;2.50;;;1.00;;
2658;SDS011;1339;53.304;10.406;2022-10-16T09:53:54;2.73;;;1.30;;
2658;SDS011;1339;53.304;10.406;2022-10-16T09:56:24;1.33;;;1.20;;
2658;SDS011;1339;53.304;10.406;2022-10-16T09:58:51;1.20;;;1.10;;
2658;SDS011;1339;53.304;10.406;2022-10-16T10:01:18;3.77;;;1.93;;
2658;SDS011;1339;53.304;10.406;2022-10-16T10:03:46;3.80;;;1.03;;
2658;SDS011;1339;53.304;10.406;2022-10-16T10:06:22;2.73;;;1.17;;
2658;SDS011;1339;53.304;10.406;2022-10-16T10:08:53;2.40;;;1.10;;
2658;SDS011;1339;53.304;10.406;2022-10-16T10:14:08;3.50;;;1.43;;
2658;SDS011;1339;53.304;10.406;2022-10-16T10:16:41;2.17;;;1.20;;
2658;SDS011;1339;53.304;10.406;2022-10-16T10:19:10;5.00;;;1.00;;
2658;SDS011;1339;53.304;10.406;2022-10-16T10:21:40;6.37;;;1.93;;
2658;SDS011;1339;53.304;10.406;2022-10-16T10:24:09;1.60;;;1.07;;
2658;SDS011;1339;53.304;10.406;2022-10-16T10:26:36;2.40;;;1.00;;
2658;SDS011;1339;53.304;10.406;2022-10-16T10:29:10;2.93;;;1.10;;
2658;SDS011;1339;53.304;10.406;2022-10-16T10:31:41;3.07;;;1.00;;
2658;SDS011;1339;53.304;10.406;2022-10-16T10:34:13;4.37;;;1.23;;
2658;SDS011;1339;53.304;10.406;2022-10-16T10:36:45;1.20;;;1.10;;
2658;SDS011;1339;53.304;10.406;2022-10-16T10:39:16;1.73;;;1.10;;
2658;SDS011;1339;53.304;10.406;2022-10-16T10:41:54;2.07;;;1.07;;
2658;SDS011;1339;53.304;10.406;2022-10-16T10:44:26;3.30;;;1.20;;
2658;SDS011;1339;53.304;10.406;2022-10-16T10:46:56;3.77;;;1.57;;
2658;SDS011;1339;53.304;10.406;2022-10-16T10:49:35;2.20;;;0.70;;
2658;SDS011;1339;53.304;10.406;2022-10-16T10:52:10;2.63;;;0.97;;
2658;SDS011;1339;53.304;10.406;2022-10-16T10:54:41;3.27;;;1.20;;
2658;SDS011;1339;53.304;10.406;2022-10-16T10:57:18;1.60;;;0.93;;
2658;SDS011;1339;53.304;10.406;2022-10-16T10:59:59;3.07;;;0.97;;
2658;SDS011;1339;53.304;10.406;2022-10-16T11:02:31;1.80;;;0.70;;
2658;SDS011;1339;53.304;10.406;2022-10-16T11:05:09;1.50;;;1.00;;
2658;SDS011;1339;53.304;10.406;2022-10-16T11:07:41;2.80;;;1.07;;
2658;SDS011;1339;53.304;10.406;2022-10-16T11:10:12;1.57;;;1.00;;
2658;SDS011;1339;53.304;10.406;2022-10-16T11:12:42;2.50;;;1.43;;
2658;SDS011;1339;53.304;10.406;2022-10-16T11:15:12;2.47;;;0.80;;
2658;SDS011;1339;53.304;10.406;2022-10-16T11:17:41;1.87;;;0.90;;
2658;SDS011;1339;53.304;10.406;2022-10-16T11:20:12;1.40;;;1.30;;
2658;SDS011;1339;53.304;10.406;2022-10-16T11:22:41;2.60;;;0.90;;
2658;SDS011;1339;53.304;10.406;2022-10-16T11:25:12;1.90;;;0.87;;
2658;SDS011;1339;53.304;10.406;2022-10-16T11:27:41;2.17;;;1.13;;
2658;SDS011;1339;53.304;10.406;2022-10-16T11:30:14;2.23;;;1.10;;
2658;SDS011;1339;53.304;10.406;2022-10-16T11:32:47;1.77;;;0.90;;
2658;SDS011;1339;53.304;10.406;2022-10-16T11:35:17;1.77;;;0.80;;
2658;SDS011;1339;53.304;10.406;2022-10-16T11:37:46;1.53;;;0.83;;
2658;SDS011;1339;53.304;10.406;2022-10-16T11:40:17;3.77;;;1.87;;
2658;SDS011;1339;53.304;10.406;2022-10-16T11:42:46;1.20;;;0.70;;
2658;SDS011;1339;53.304;10.406;2022-10-16T11:45:20;4.40;;;1.20;;
2658;SDS011;1339;53.304;10.406;2022-10-16T11:47:51;3.47;;;1.23;;
2658;SDS011;1339;53.304;10.406;2022-10-16T11:50:22;3.80;;;1.17;;
2658;SDS011;1339;53.304;10.406;2022-10-16T11:52:53;3.53;;;1.30;;
2658;SDS011;1339;53.304;10.406;2022-10-16T11:55:23;2.73;;;1.10;;
2658;SDS011;1339;53.304;10.406;2022-10-16T11:57:51;3.93;;;0.80;;
2658;SDS011;1339;53.304;10.406;2022-10-16T12:00:22;1.40;;;0.90;;
2658;SDS011;1339;53.304;10.406;2022-10-16T12:02:53;2.30;;;0.90;;
2658;SDS011;1339;53.304;10.406;2022-10-16T12:05:24;2.40;;;1.00;;
2658;SDS011;1339;53.304;10.406;2022-10-16T12:08:01;1.40;;;0.90;;
2658;SDS011;1339;53.304;10.406;2022-10-16T12:10:29;2.60;;;0.90;;
2658;SDS011;1339;53.304;10.406;2022-10-16T12:13:01;1.30;;;0.90;;
2658;SDS011;1339;53.304;10.406;2022-10-16T12:15:31;3.60;;;1.30;;
2658;SDS011;1339;53.304;10.406;2022-10-16T12:17:58;4.10;;;1.17;;
2658;SDS011;1339;53.304;10.406;2022-10-16T12:20:27;1.30;;;0.90;;
2658;SDS011;1339;53.304;10.406;2022-10-16T12:22:56;2.20;;;1.07;;
2658;SDS011;1339;53.304;10.406;2022-10-16T12:25:25;1.77;;;1.03;;
2658;SDS011;1339;53.304;10.406;2022-10-16T12:27:57;1.30;;;1.00;;
2658;SDS011;1339;53.304;10.406;2022-10-16T12:30:25;4.37;;;1.37;;
2658;SDS011;1339;53.304;10.406;2022-10-16T12:32:54;3.53;;;1.10;;
2658;SDS011;1339;53.304;10.406;2022-10-16T12:35:22;10.23;;;1.00;;
2658;SDS011;1339;53.304;10.406;2022-10-16T12:37:50;1.77;;;1.10;;
2658;SDS011;1339;53.304;10.406;2022-10-16T12:40:27;2.73;;;0.80;;
2658;SDS011;1339;53.304;10.406;2022-10-16T12:42:55;1.67;;;0.83;;
2658;SDS011;1339;53.304;10.406;2022-10-16T12:45:24;2.57;;;1.47;;
2658;SDS011;1339;53.304;10.406;2022-10-16T12:47:52;2.57;;;1.00;;
2658;SDS011;1339;53.304;10.406;2022-10-16T12:50:25;2.33;;;1.40;;
2658;SDS011;1339;53.304;10.406;2022-10-16T12:52:52;1.73;;;0.90;;
2658;SDS011;1339;53.304;10.406;2022-10-16T12:55:20;3.43;;;1.50;;
2658;SDS011;1339;53.304;10.406;2022-10-16T12:57:54;2.57;;;1.50;;
2658;SDS011;1339;53.304;10.406;2022-10-16T13:00:24;4.80;;;1.27;;
2658;SDS011;1339;53.304;10.406;2022-10-16T13:02:59;8.30;;;3.13;;
2658;SDS011;1339;53.304;10.406;2022-10-16T13:05:38;2.43;;;1.10;;
2658;SDS011;1339;53.304;10.406;2022-10-16T13:08:19;2.77;;;1.03;;
2658;SDS011;1339;53.304;10.406;2022-10-16T13:10:53;1.60;;;1.50;;
2658;SDS011;1339;53.304;10.406;2022-10-16T13:13:26;6.77;;;1.67;;
2658;SDS011;1339;53.304;10.406;2022-10-16T13:16:00;1.63;;;1.47;;
2658;SDS011;1339;53.304;10.406;2022-10-16T13:18:29;3.53;;;1.07;;
2658;SDS011;1339;53.304;10.406;2022-10-16T13:21:08;4.63;;;1.17;;
2658;SDS011;1339;53.304;10.406;2022-10-16T13:23:38;5.80;;;1.30;;
2658;SDS011;1339;53.304;10.406;2022-10-16T13:26:14;1.93;;;1.03;;
2658;SDS011;1339;53.304;10.406;2022-10-16T13:28:44;2.33;;;1.10;;
2658;SDS011;1339;53.304;10.406;2022-10-16T13:31:13;1.83;;;1.33;;
2658;SDS011;1339;53.304;10.406;2022-10-16T13:33:43;1.53;;;0.90;;
2658;SDS011;1339;53.304;10.406;2022-10-16T13:36:19;4.00;;;1.37;;
2658;SDS011;1339;53.304;10.406;2022-10-16T13:38:46;1.67;;;1.20;;
2658;SDS011;1339;53.304;10.406;2022-10-16T13:41:14;1.30;;;1.00;;
2658;SDS011;1339;53.304;10.406;2022-10-16T13:43:43;1.60;;;0.83;;
2658;SDS011;1339;53.304;10.406;2022-10-16T13:46:11;4.10;;;0.90;;
2658;SDS011;1339;53.304;10.406;2022-10-16T13:48:39;1.57;;;1.13;;
2658;SDS011;1339;53.304;10.406;2022-10-16T13:51:10;3.23;;;1.10;;
2658;SDS011;1339;53.304;10.406;2022-10-16T13:53:40;1.70;;;0.90;;
2658;SDS011;1339;53.304;10.406;2022-10-16T13:56:09;4.87;;;1.20;;
2658;SDS011;1339;53.304;10.406;2022-10-16T13:58:36;3.63;;;1.20;;
2658;SDS011;1339;53.304;10.406;2022-10-16T14:01:04;4.10;;;1.20;;
2658;SDS011;1339;53.304;10.406;2022-10-16T14:03:33;2.47;;;1.37;;
2658;SDS011;1339;53.304;10.406;2022-10-16T14:06:02;5.20;;;1.27;;
2658;SDS011;1339;53.304;10.406;2022-10-16T14:08:30;2.30;;;1.10;;
2658;SDS011;1339;53.304;10.406;2022-10-16T14:11:00;4.70;;;1.10;;
2658;SDS011;1339;53.304;10.406;2022-10-16T14:13:29;1.30;;;1.20;;
2658;SDS011;1339;53.304;10.406;2022-10-16T14:15:58;2.37;;;0.90;;
2658;SDS011;1339;53.304;10.406;2022-10-16T14:18:27;3.10;;;1.07;;
2658;SDS011;1339;53.304;10.406;2022-10-16T14:20:54;3.63;;;1.00;;
2658;SDS011;1339;53.304;10.406;2022-10-16T14:23:22;3.97;;;1.50;;
2658;SDS011;1339;53.304;10.406;2022-10-16T14:25:51;2.70;;;1.10;;
2658;SDS011;1339;53.304;10.406;2022-10-16T14:28:20;2.40;;;1.10;;
2658;SDS011;1339;53.304;10.406;2022-10-16T14:30:49;2.80;;;1.00;;
2658;SDS011;1339;53.304;10.406;2022-10-16T14:33:21;2.60;;;0.97;;
2658;SDS011;1339;53.304;10.406;2022-10-16T14:35:58;1.37;;;1.10;;
2658;SDS011;1339;53.304;10.406;2022-10-16T14:38:26;2.40;;;1.23;;
2658;SDS011;1339;53.304;10.406;2022-10-16T14:40:54;3.60;;;1.30;;
2658;SDS011;1339;53.304;10.406;2022-10-16T14:43:26;4.33;;;1.30;;
2658;SDS011;1339;53.304;10.406;2022-10-16T14:45:55;2.07;;;1.20;;
2658;SDS011;1339;53.304;10.406;2022-10-16T14:48:23;1.60;;;1.07;;
2658;SDS011;1339;53.304;10.406;2022-10-16T14:50:51;7.40;;;1.57;;
2658;SDS011;1339;53.304;10.406;2022-10-16T14:53:19;0.97;;;0.80;;
2658;SDS011;1339;53.304;10.406;2022-10-16T14:55:46;1.20;;;0.90;;
2658;SDS011;1339;53.304;10.406;2022-10-16T14:58:14;2.90;;;1.10;;
2658;SDS011;1339;53.304;10.406;2022-10-16T15:00:44;2.40;;;1.20;;
2658;SDS011;1339;53.304;10.406;2022-10-16T15:03:11;1.40;;;1.00;;
2658;SDS011;1339;53.304;10.406;2022-10-16T15:05:38;1.97;;;1.03;;
2658;SDS011;1339;53.304;10.406;2022-10-16T15:08:05;3.30;;;1.97;;
2658;SDS011;1339;53.304;10.406;2022-10-16T15:10:35;1.60;;;1.10;;
2658;SDS011;1339;53.304;10.406;2022-10-16T15:13:04;3.10;;;1.03;;